sensor_id;sensor_type;location;lat;lon;timestamp;P1;durP1;ratioP1;P2;durP2;ratioP2
60472;SDS011;46318;52.716;6.444;2023-06-10T00:02:08;8.20;;;4.97;;
60472;SDS011;46318;52.716;6.444;2023-06-10T00:04:34;8.20;;;5.03;;
60472;SDS011;46318;52.716;6.444;2023-06-10T00:07:04;11.15;;;5.30;;
60472;SDS011;46318;52.716;6.444;2023-06-10T00:09:34;7.68;;;4.70;;
60472;SDS011;46318;52.716;6.444;2023-06-10T00:12:02;9.27;;;4.85;;
60472;SDS011;46318;52.716;6.444;2023-06-10T00:14:30;8.27;;;4.95;;
60472;SDS011;46318;52.716;6.444;2023-06-10T00:16:56;8.05;;;5.05;;
60472;SDS011;46318;52.716;6.444;2023-06-10T00:19:22;8.70;;;4.95;;
60472;SDS011;46318;52.716;6.444;2023-06-10T00:21:51;5.97;;;4.75;;
60472;SDS011;46318;52.716;6.444;2023-06-10T00:24:17;8.40;;;5.15;;
60472;SDS011;46318;52.716;6.444;2023-06-10T00:26:43;7.32;;;5.72;;
60472;SDS011;46318;52.716;6.444;2023-06-10T00:29:09;10.50;;;5.18;;
60472;SDS011;46318;52.716;6.444;2023-06-10T00:31:36;11.13;;;5.82;;
60472;SDS011;46318;52.716;6.444;2023-06-10T00:34:03;6.85;;;4.82;;
60472;SDS011;46318;52.716;6.444;2023-06-10T00:36:29;8.35;;;5.53;;
60472;SDS011;46318;52.716;6.444;2023-06-10T00:38:55;6.93;;;5.30;;
60472;SDS011;46318;52.716;6.444;2023-06-10T00:41:22;7.07;;;5.32;;
60472;SDS011;46318;52.716;6.444;2023-06-10T00:43:48;8.05;;;5.65;;
60472;SDS011;46318;52.716;6.444;2023-06-10T00:46:14;8.43;;;5.47;;
60472;SDS011;46318;52.716;6.444;2023-06-10T00:48:41;9.50;;;5.35;;
60472;SDS011;46318;52.716;6.444;2023-06-10T00:51:09;10.07;;;5.07;;
60472;SDS011;46318;52.716;6.444;2023-06-10T00:53:36;8.55;;;5.30;;
60472;SDS011;46318;52.716;6.444;2023-06-10T00:56:05;9.73;;;5.85;;
60472;SDS011;46318;52.716;6.444;2023-06-10T00:58:32;7.78;;;5.57;;
60472;SDS011;46318;52.716;6.444;2023-06-10T01:00:58;7.68;;;5.82;;
60472;SDS011;46318;52.716;6.444;2023-06-10T01:03:24;7.70;;;5.68;;
60472;SDS011;46318;52.716;6.444;2023-06-10T01:08:45;7.75;;;5.88;;
60472;SDS011;46318;52.716;6.444;2023-06-10T01:11:36;11.52;;;5.55;;
60472;SDS011;46318;52.716;6.444;2023-06-10T01:14:12;9.93;;;5.20;;
60472;SDS011;46318;52.716;6.444;2023-06-10T01:16:39;8.98;;;5.68;;
60472;SDS011;46318;52.716;6.444;2023-06-10T01:19:06;6.43;;;5.43;;
60472;SDS011;46318;52.716;6.444;2023-06-10T01:21:32;9.15;;;5.65;;
60472;SDS011;46318;52.716;6.444;2023-06-10T01:23:58;8.93;;;5.78;;
60472;SDS011;46318;52.716;6.444;2023-06-10T01:26:26;13.05;;;5.80;;
60472;SDS011;46318;52.716;6.444;2023-06-10T01:34:48;8.23;;;6.25;;
60472;SDS011;46318;52.716;6.444;2023-06-10T01:37:16;9.30;;;5.95;;
60472;SDS011;46318;52.716;6.444;2023-06-10T01:39:45;11.07;;;5.95;;
60472;SDS011;46318;52.716;6.444;2023-06-10T01:42:13;9.18;;;6.00;;
60472;SDS011;46318;52.716;6.444;2023-06-10T01:44:40;9.15;;;5.88;;
60472;SDS011;46318;52.716;6.444;2023-06-10T01:47:07;12.10;;;5.78;;
60472;SDS011;46318;52.716;6.444;2023-06-10T01:49:34;8.90;;;6.43;;
60472;SDS011;46318;52.716;6.444;2023-06-10T01:52:00;9.35;;;6.10;;
60472;SDS011;46318;52.716;6.444;2023-06-10T01:54:25;8.05;;;6.18;;
60472;SDS011;46318;52.716;6.444;2023-06-10T01:56:52;11.00;;;6.28;;
60472;SDS011;46318;52.716;6.444;2023-06-10T01:59:17;6.95;;;6.10;;
60472;SDS011;46318;52.716;6.444;2023-06-10T02:01:43;9.05;;;6.45;;
60472;SDS011;46318;52.716;6.444;2023-06-10T02:04:09;12.15;;;5.85;;
60472;SDS011;46318;52.716;6.444;2023-06-10T02:06:35;10.23;;;6.45;;
60472;SDS011;46318;52.716;6.444;2023-06-10T02:09:02;10.35;;;6.28;;
60472;SDS011;46318;52.716;6.444;2023-06-10T02:11:28;8.82;;;5.90;;
60472;SDS011;46318;52.716;6.444;2023-06-10T02:13:54;11.13;;;6.18;;
60472;SDS011;46318;52.716;6.444;2023-06-10T02:16:20;7.45;;;6.10;;
60472;SDS011;46318;52.716;6.444;2023-06-10T02:18:46;8.15;;;6.30;;
60472;SDS011;46318;52.716;6.444;2023-06-10T02:21:13;9.40;;;6.97;;
60472;SDS011;46318;52.716;6.444;2023-06-10T02:23:39;7.68;;;6.15;;
60472;SDS011;46318;52.716;6.444;2023-06-10T02:26:05;10.70;;;6.63;;
60472;SDS011;46318;52.716;6.444;2023-06-10T02:28:31;10.45;;;6.65;;
60472;SDS011;46318;52.716;6.444;2023-06-10T02:30:57;9.00;;;5.82;;
60472;SDS011;46318;52.716;6.444;2023-06-10T02:33:24;7.20;;;5.75;;
60472;SDS011;46318;52.716;6.444;2023-06-10T02:35:50;10.32;;;5.93;;
60472;SDS011;46318;52.716;6.444;2023-06-10T02:38:16;8.68;;;6.55;;
60472;SDS011;46318;52.716;6.444;2023-06-10T02:40:42;11.50;;;6.55;;
60472;SDS011;46318;52.716;6.444;2023-06-10T02:43:08;10.15;;;6.35;;
60472;SDS011;46318;52.716;6.444;2023-06-10T02:45:34;7.50;;;6.32;;
60472;SDS011;46318;52.716;6.444;2023-06-10T02:48:00;9.13;;;6.82;;
60472;SDS011;46318;52.716;6.444;2023-06-10T02:50:26;8.68;;;6.22;;
60472;SDS011;46318;52.716;6.444;2023-06-10T02:52:52;6.72;;;6.03;;
60472;SDS011;46318;52.716;6.444;2023-06-10T02:55:18;14.65;;;7.43;;
60472;SDS011;46318;52.716;6.444;2023-06-10T02:57:44;7.38;;;6.55;;
60472;SDS011;46318;52.716;6.444;2023-06-10T03:00:10;10.15;;;6.53;;
60472;SDS011;46318;52.716;6.444;2023-06-10T03:02:38;8.82;;;7.03;;
60472;SDS011;46318;52.716;6.444;2023-06-10T03:05:04;7.70;;;5.93;;
60472;SDS011;46318;52.716;6.444;2023-06-10T03:07:35;11.03;;;7.23;;
60472;SDS011;46318;52.716;6.444;2023-06-10T03:10:02;8.20;;;6.47;;
60472;SDS011;46318;52.716;6.444;2023-06-10T03:12:28;7.60;;;6.20;;
60472;SDS011;46318;52.716;6.444;2023-06-10T03:14:54;9.05;;;6.70;;
60472;SDS011;46318;52.716;6.444;2023-06-10T03:17:20;10.32;;;6.80;;
60472;SDS011;46318;52.716;6.444;2023-06-10T03:19:46;9.45;;;6.68;;
60472;SDS011;46318;52.716;6.444;2023-06-10T03:22:13;9.45;;;6.72;;
60472;SDS011;46318;52.716;6.444;2023-06-10T03:24:40;11.10;;;7.00;;
60472;SDS011;46318;52.716;6.444;2023-06-10T03:27:09;12.20;;;6.47;;
60472;SDS011;46318;52.716;6.444;2023-06-10T03:29:36;8.48;;;6.30;;
60472;SDS011;46318;52.716;6.444;2023-06-10T03:32:02;9.68;;;5.97;;
60472;SDS011;46318;52.716;6.444;2023-06-10T03:34:29;11.82;;;6.47;;
60472;SDS011;46318;52.716;6.444;2023-06-10T03:36:55;13.95;;;6.65;;
60472;SDS011;46318;52.716;6.444;2023-06-10T03:39:22;7.57;;;6.05;;
60472;SDS011;46318;52.716;6.444;2023-06-10T03:41:49;7.70;;;6.05;;
60472;SDS011;46318;52.716;6.444;2023-06-10T03:44:15;9.70;;;6.40;;
60472;SDS011;46318;52.716;6.444;2023-06-10T03:46:41;8.93;;;6.18;;
60472;SDS011;46318;52.716;6.444;2023-06-10T03:49:07;8.32;;;6.18;;
60472;SDS011;46318;52.716;6.444;2023-06-10T03:51:35;8.90;;;5.68;;
60472;SDS011;46318;52.716;6.444;2023-06-10T03:54:01;9.73;;;6.72;;
60472;SDS011;46318;52.716;6.444;2023-06-10T03:56:27;8.95;;;6.38;;
60472;SDS011;46318;52.716;6.444;2023-06-10T03:58:54;8.18;;;6.22;;
60472;SDS011;46318;52.716;6.444;2023-06-10T04:01:20;11.88;;;6.30;;
60472;SDS011;46318;52.716;6.444;2023-06-10T04:03:48;10.57;;;6.55;;
60472;SDS011;46318;52.716;6.444;2023-06-10T04:06:16;10.48;;;5.75;;
60472;SDS011;46318;52.716;6.444;2023-06-10T04:08:42;10.43;;;6.25;;
60472;SDS011;46318;52.716;6.444;2023-06-10T04:11:08;9.95;;;6.07;;
60472;SDS011;46318;52.716;6.444;2023-06-10T04:13:34;10.63;;;6.30;;
60472;SDS011;46318;52.716;6.444;2023-06-10T04:16:01;7.85;;;6.40;;
60472;SDS011;46318;52.716;6.444;2023-06-10T04:18:27;8.82;;;6.60;;
60472;SDS011;46318;52.716;6.444;2023-06-10T04:20:53;14.43;;;6.72;;
60472;SDS011;46318;52.716;6.444;2023-06-10T04:23:20;8.07;;;6.18;;
60472;SDS011;46318;52.716;6.444;2023-06-10T04:25:46;12.63;;;6.70;;
60472;SDS011;46318;52.716;6.444;2023-06-10T04:28:12;10.82;;;6.95;;
60472;SDS011;46318;52.716;6.444;2023-06-10T04:30:39;10.75;;;6.30;;
60472;SDS011;46318;52.716;6.444;2023-06-10T04:33:04;11.10;;;7.05;;
60472;SDS011;46318;52.716;6.444;2023-06-10T04:35:33;8.57;;;6.18;;
60472;SDS011;46318;52.716;6.444;2023-06-10T04:37:59;8.90;;;5.85;;
60472;SDS011;46318;52.716;6.444;2023-06-10T04:40:24;8.95;;;6.20;;
60472;SDS011;46318;52.716;6.444;2023-06-10T04:42:50;9.50;;;6.63;;
60472;SDS011;46318;52.716;6.444;2023-06-10T04:45:16;8.98;;;5.82;;
60472;SDS011;46318;52.716;6.444;2023-06-10T04:47:42;8.18;;;6.03;;
60472;SDS011;46318;52.716;6.444;2023-06-10T04:50:08;8.13;;;6.40;;
60472;SDS011;46318;52.716;6.444;2023-06-10T04:52:34;8.40;;;5.57;;
60472;SDS011;46318;52.716;6.444;2023-06-10T04:55:00;8.05;;;5.90;;
60472;SDS011;46318;52.716;6.444;2023-06-10T04:57:26;12.45;;;6.35;;
60472;SDS011;46318;52.716;6.444;2023-06-10T04:59:52;11.02;;;6.68;;
60472;SDS011;46318;52.716;6.444;2023-06-10T05:02:18;8.98;;;5.80;;
60472;SDS011;46318;52.716;6.444;2023-06-10T05:04:44;8.05;;;5.90;;
60472;SDS011;46318;52.716;6.444;2023-06-10T05:07:10;9.10;;;6.47;;
60472;SDS011;46318;52.716;6.444;2023-06-10T05:09:36;9.60;;;6.55;;
60472;SDS011;46318;52.716;6.444;2023-06-10T05:12:02;12.15;;;6.65;;
60472;SDS011;46318;52.716;6.444;2023-06-10T05:14:29;11.15;;;6.78;;
60472;SDS011;46318;52.716;6.444;2023-06-10T05:16:56;9.57;;;6.50;;
60472;SDS011;46318;52.716;6.444;2023-06-10T05:19:22;10.15;;;7.10;;
60472;SDS011;46318;52.716;6.444;2023-06-10T05:21:48;9.80;;;6.13;;
60472;SDS011;46318;52.716;6.444;2023-06-10T05:24:14;9.77;;;6.82;;
60472;SDS011;46318;52.716;6.444;2023-06-10T05:26:40;9.15;;;6.55;;
60472;SDS011;46318;52.716;6.444;2023-06-10T05:29:08;12.23;;;6.82;;
60472;SDS011;46318;52.716;6.444;2023-06-10T05:31:36;8.15;;;6.18;;
60472;SDS011;46318;52.716;6.444;2023-06-10T05:34:02;9.98;;;6.38;;
60472;SDS011;46318;52.716;6.444;2023-06-10T05:36:28;12.95;;;7.53;;
60472;SDS011;46318;52.716;6.444;2023-06-10T05:38:57;12.10;;;6.75;;
60472;SDS011;46318;52.716;6.444;2023-06-10T05:41:23;11.15;;;6.65;;
60472;SDS011;46318;52.716;6.444;2023-06-10T05:43:50;9.68;;;6.90;;
60472;SDS011;46318;52.716;6.444;2023-06-10T05:46:16;10.60;;;6.97;;
60472;SDS011;46318;52.716;6.444;2023-06-10T05:48:42;9.27;;;6.18;;
60472;SDS011;46318;52.716;6.444;2023-06-10T05:51:08;13.50;;;7.72;;
60472;SDS011;46318;52.716;6.444;2023-06-10T05:53:35;9.70;;;6.72;;
60472;SDS011;46318;52.716;6.444;2023-06-10T05:56:01;9.82;;;7.00;;
60472;SDS011;46318;52.716;6.444;2023-06-10T05:58:27;10.05;;;6.55;;
60472;SDS011;46318;52.716;6.444;2023-06-10T06:00:53;11.23;;;6.82;;
60472;SDS011;46318;52.716;6.444;2023-06-10T06:03:19;11.30;;;7.03;;
60472;SDS011;46318;52.716;6.444;2023-06-10T06:05:45;10.43;;;6.90;;
60472;SDS011;46318;52.716;6.444;2023-06-10T06:08:11;7.63;;;6.57;;
60472;SDS011;46318;52.716;6.444;2023-06-10T06:10:38;10.43;;;7.00;;
60472;SDS011;46318;52.716;6.444;2023-06-10T06:13:04;10.25;;;6.78;;
60472;SDS011;46318;52.716;6.444;2023-06-10T06:15:30;9.98;;;6.70;;
60472;SDS011;46318;52.716;6.444;2023-06-10T06:17:56;13.13;;;7.22;;
60472;SDS011;46318;52.716;6.444;2023-06-10T06:20:22;9.40;;;6.20;;
60472;SDS011;46318;52.716;6.444;2023-06-10T06:22:48;11.05;;;6.55;;
60472;SDS011;46318;52.716;6.444;2023-06-10T06:25:14;11.50;;;7.22;;
60472;SDS011;46318;52.716;6.444;2023-06-10T06:27:40;9.23;;;6.38;;
60472;SDS011;46318;52.716;6.444;2023-06-10T06:30:06;10.65;;;6.45;;
60472;SDS011;46318;52.716;6.444;2023-06-10T06:32:33;7.85;;;5.78;;
60472;SDS011;46318;52.716;6.444;2023-06-10T06:34:59;9.75;;;6.85;;
60472;SDS011;46318;52.716;6.444;2023-06-10T06:37:25;11.02;;;6.68;;
60472;SDS011;46318;52.716;6.444;2023-06-10T06:39:51;20.63;;;7.72;;
60472;SDS011;46318;52.716;6.444;2023-06-10T06:42:18;8.25;;;6.53;;
60472;SDS011;46318;52.716;6.444;2023-06-10T06:44:46;10.40;;;6.03;;
60472;SDS011;46318;52.716;6.444;2023-06-10T06:47:12;16.55;;;7.10;;
60472;SDS011;46318;52.716;6.444;2023-06-10T06:49:38;7.82;;;5.90;;
60472;SDS011;46318;52.716;6.444;2023-06-10T06:52:04;10.13;;;5.88;;
60472;SDS011;46318;52.716;6.444;2023-06-10T06:54:30;8.65;;;6.13;;
60472;SDS011;46318;52.716;6.444;2023-06-10T06:56:57;13.77;;;6.72;;
60472;SDS011;46318;52.716;6.444;2023-06-10T06:59:23;16.63;;;7.22;;
60472;SDS011;46318;52.716;6.444;2023-06-10T07:01:50;10.52;;;6.80;;
60472;SDS011;46318;52.716;6.444;2023-06-10T07:04:16;16.73;;;6.20;;
60472;SDS011;46318;52.716;6.444;2023-06-10T07:06:44;10.25;;;6.05;;
60472;SDS011;46318;52.716;6.444;2023-06-10T07:09:10;10.32;;;6.38;;
60472;SDS011;46318;52.716;6.444;2023-06-10T07:11:36;9.57;;;5.72;;
60472;SDS011;46318;52.716;6.444;2023-06-10T07:14:02;12.88;;;6.32;;
60472;SDS011;46318;52.716;6.444;2023-06-10T07:16:28;8.93;;;5.90;;
60472;SDS011;46318;52.716;6.444;2023-06-10T07:18:54;8.70;;;6.35;;
60472;SDS011;46318;52.716;6.444;2023-06-10T07:21:20;11.40;;;5.80;;
60472;SDS011;46318;52.716;6.444;2023-06-10T07:23:47;9.52;;;6.63;;
60472;SDS011;46318;52.716;6.444;2023-06-10T07:26:14;8.18;;;6.05;;
60472;SDS011;46318;52.716;6.444;2023-06-10T07:28:40;9.70;;;6.47;;
60472;SDS011;46318;52.716;6.444;2023-06-10T07:31:07;9.02;;;6.07;;
60472;SDS011;46318;52.716;6.444;2023-06-10T07:33:33;10.13;;;6.20;;
60472;SDS011;46318;52.716;6.444;2023-06-10T07:35:59;14.20;;;6.65;;
60472;SDS011;46318;52.716;6.444;2023-06-10T07:38:25;10.10;;;6.32;;
60472;SDS011;46318;52.716;6.444;2023-06-10T07:40:51;7.78;;;5.28;;
60472;SDS011;46318;52.716;6.444;2023-06-10T07:43:18;10.18;;;6.07;;
60472;SDS011;46318;52.716;6.444;2023-06-10T07:45:44;7.78;;;5.45;;
60472;SDS011;46318;52.716;6.444;2023-06-10T07:48:10;7.10;;;4.78;;
60472;SDS011;46318;52.716;6.444;2023-06-10T07:50:36;9.63;;;5.40;;
60472;SDS011;46318;52.716;6.444;2023-06-10T07:53:02;7.05;;;5.22;;
60472;SDS011;46318;52.716;6.444;2023-06-10T07:55:29;10.45;;;5.53;;
60472;SDS011;46318;52.716;6.444;2023-06-10T07:57:55;9.82;;;5.18;;
60472;SDS011;46318;52.716;6.444;2023-06-10T08:00:21;8.00;;;5.38;;
60472;SDS011;46318;52.716;6.444;2023-06-10T08:02:47;9.43;;;5.22;;
60472;SDS011;46318;52.716;6.444;2023-06-10T08:05:13;10.55;;;5.32;;
60472;SDS011;46318;52.716;6.444;2023-06-10T08:07:39;10.55;;;5.63;;
60472;SDS011;46318;52.716;6.444;2023-06-10T08:10:06;9.02;;;5.35;;
60472;SDS011;46318;52.716;6.444;2023-06-10T08:12:33;8.88;;;4.82;;
60472;SDS011;46318;52.716;6.444;2023-06-10T08:14:59;9.02;;;4.97;;
60472;SDS011;46318;52.716;6.444;2023-06-10T08:17:26;7.80;;;4.82;;
60472;SDS011;46318;52.716;6.444;2023-06-10T08:19:52;9.30;;;5.68;;
60472;SDS011;46318;52.716;6.444;2023-06-10T08:22:18;8.00;;;6.03;;
60472;SDS011;46318;52.716;6.444;2023-06-10T08:24:44;7.70;;;4.95;;
60472;SDS011;46318;52.716;6.444;2023-06-10T08:27:10;6.47;;;4.55;;
60472;SDS011;46318;52.716;6.444;2023-06-10T08:29:36;7.75;;;5.07;;
60472;SDS011;46318;52.716;6.444;2023-06-10T08:32:01;8.15;;;5.35;;
60472;SDS011;46318;52.716;6.444;2023-06-10T08:34:28;8.57;;;4.97;;
60472;SDS011;46318;52.716;6.444;2023-06-10T08:36:54;5.82;;;5.03;;
60472;SDS011;46318;52.716;6.444;2023-06-10T08:39:23;7.93;;;5.13;;
60472;SDS011;46318;52.716;6.444;2023-06-10T08:42:52;8.48;;;4.97;;
60472;SDS011;46318;52.716;6.444;2023-06-10T08:44:49;6.60;;;4.40;;
60472;SDS011;46318;52.716;6.444;2023-06-10T08:47:20;6.97;;;4.40;;
60472;SDS011;46318;52.716;6.444;2023-06-10T08:49:49;6.18;;;4.60;;
60472;SDS011;46318;52.716;6.444;2023-06-10T08:52:21;7.80;;;4.82;;
60472;SDS011;46318;52.716;6.444;2023-06-10T08:54:59;8.13;;;5.30;;
60472;SDS011;46318;52.716;6.444;2023-06-10T08:57:41;6.05;;;4.47;;
60472;SDS011;46318;52.716;6.444;2023-06-10T09:00:09;8.10;;;4.78;;
60472;SDS011;46318;52.716;6.444;2023-06-10T09:02:36;9.38;;;5.00;;
60472;SDS011;46318;52.716;6.444;2023-06-10T09:05:04;7.20;;;5.30;;
60472;SDS011;46318;52.716;6.444;2023-06-10T09:07:31;8.70;;;4.55;;
60472;SDS011;46318;52.716;6.444;2023-06-10T09:09:57;8.40;;;4.47;;
60472;SDS011;46318;52.716;6.444;2023-06-10T09:12:24;5.30;;;4.28;;
60472;SDS011;46318;52.716;6.444;2023-06-10T09:14:50;6.47;;;5.32;;
60472;SDS011;46318;52.716;6.444;2023-06-10T09:17:16;9.30;;;5.35;;
60472;SDS011;46318;52.716;6.444;2023-06-10T09:19:42;8.23;;;4.60;;
60472;SDS011;46318;52.716;6.444;2023-06-10T09:22:10;8.13;;;5.63;;
60472;SDS011;46318;52.716;6.444;2023-06-10T09:24:36;8.95;;;5.10;;
60472;SDS011;46318;52.716;6.444;2023-06-10T09:27:07;7.72;;;5.10;;
60472;SDS011;46318;52.716;6.444;2023-06-10T09:29:53;7.57;;;5.32;;
60472;SDS011;46318;52.716;6.444;2023-06-10T09:32:20;6.07;;;5.03;;
60472;SDS011;46318;52.716;6.444;2023-06-10T09:34:47;7.63;;;5.88;;
60472;SDS011;46318;52.716;6.444;2023-06-10T09:37:19;12.05;;;6.45;;
60472;SDS011;46318;52.716;6.444;2023-06-10T09:40:03;6.30;;;5.70;;
60472;SDS011;46318;52.716;6.444;2023-06-10T09:42:34;6.97;;;5.88;;
60472;SDS011;46318;52.716;6.444;2023-06-10T09:45:03;8.35;;;5.88;;
60472;SDS011;46318;52.716;6.444;2023-06-10T09:47:31;7.63;;;5.60;;
60472;SDS011;46318;52.716;6.444;2023-06-10T09:49:57;7.88;;;5.47;;
60472;SDS011;46318;52.716;6.444;2023-06-10T09:52:26;6.55;;;5.18;;
60472;SDS011;46318;52.716;6.444;2023-06-10T09:54:58;5.95;;;5.07;;
60472;SDS011;46318;52.716;6.444;2023-06-10T09:57:26;7.20;;;5.57;;
60472;SDS011;46318;52.716;6.444;2023-06-10T09:59:59;6.85;;;5.10;;
60472;SDS011;46318;52.716;6.444;2023-06-10T10:02:33;5.85;;;5.07;;
60472;SDS011;46318;52.716;6.444;2023-06-10T10:05:14;8.20;;;5.35;;
60472;SDS011;46318;52.716;6.444;2023-06-10T10:07:42;9.90;;;5.30;;
60472;SDS011;46318;52.716;6.444;2023-06-10T10:10:09;7.68;;;5.72;;
60472;SDS011;46318;52.716;6.444;2023-06-10T10:12:39;6.47;;;5.40;;
60472;SDS011;46318;52.716;6.444;2023-06-10T10:15:10;7.15;;;5.10;;
60472;SDS011;46318;52.716;6.444;2023-06-10T10:17:37;7.05;;;5.68;;
60472;SDS011;46318;52.716;6.444;2023-06-10T10:22:38;6.32;;;4.97;;
60472;SDS011;46318;52.716;6.444;2023-06-10T10:25:07;7.60;;;5.53;;
60472;SDS011;46318;52.716;6.444;2023-06-10T10:27:48;5.53;;;4.80;;
60472;SDS011;46318;52.716;6.444;2023-06-10T10:30:20;6.13;;;4.68;;
60472;SDS011;46318;52.716;6.444;2023-06-10T10:32:52;5.97;;;5.03;;
60472;SDS011;46318;52.716;6.444;2023-06-10T10:35:30;6.90;;;4.53;;
60472;SDS011;46318;52.716;6.444;2023-06-10T10:37:58;6.88;;;4.93;;
60472;SDS011;46318;52.716;6.444;2023-06-10T10:40:25;7.25;;;4.80;;
60472;SDS011;46318;52.716;6.444;2023-06-10T10:42:55;6.88;;;5.25;;
60472;SDS011;46318;52.716;6.444;2023-06-10T10:45:22;6.88;;;4.63;;
60472;SDS011;46318;52.716;6.444;2023-06-10T10:47:54;6.40;;;4.35;;
60472;SDS011;46318;52.716;6.444;2023-06-10T10:50:21;6.57;;;4.95;;
60472;SDS011;46318;52.716;6.444;2023-06-10T10:55:30;5.85;;;4.80;;
60472;SDS011;46318;52.716;6.444;2023-06-10T10:57:57;4.70;;;4.20;;
60472;SDS011;46318;52.716;6.444;2023-06-10T11:00:41;26.35;;;7.05;;
60472;SDS011;46318;52.716;6.444;2023-06-10T11:03:13;6.57;;;5.00;;
60472;SDS011;46318;52.716;6.444;2023-06-10T11:05:45;7.32;;;4.63;;
60472;SDS011;46318;52.716;6.444;2023-06-10T11:08:16;5.97;;;4.05;;
60472;SDS011;46318;52.716;6.444;2023-06-10T11:11:26;8.10;;;5.10;;
60472;SDS011;46318;52.716;6.444;2023-06-10T11:16:37;75.35;;;13.55;;
60472;SDS011;46318;52.716;6.444;2023-06-10T11:19:06;5.50;;;4.47;;
60472;SDS011;46318;52.716;6.444;2023-06-10T11:21:36;4.97;;;4.07;;
60472;SDS011;46318;52.716;6.444;2023-06-10T11:24:25;5.30;;;4.20;;
60472;SDS011;46318;52.716;6.444;2023-06-10T11:26:51;6.32;;;4.15;;
60472;SDS011;46318;52.716;6.444;2023-06-10T11:29:17;5.38;;;3.90;;
60472;SDS011;46318;52.716;6.444;2023-06-10T11:31:45;12.55;;;4.55;;
60472;SDS011;46318;52.716;6.444;2023-06-10T11:34:15;4.23;;;3.83;;
60472;SDS011;46318;52.716;6.444;2023-06-10T11:36:48;7.80;;;4.90;;
60472;SDS011;46318;52.716;6.444;2023-06-10T11:39:14;4.75;;;3.85;;
60472;SDS011;46318;52.716;6.444;2023-06-10T11:41:40;6.20;;;4.40;;
60472;SDS011;46318;52.716;6.444;2023-06-10T11:44:10;4.38;;;3.97;;
60472;SDS011;46318;52.716;6.444;2023-06-10T11:46:38;6.18;;;4.28;;
60472;SDS011;46318;52.716;6.444;2023-06-10T11:49:05;4.65;;;4.20;;
60472;SDS011;46318;52.716;6.444;2023-06-10T11:51:35;5.13;;;3.88;;
60472;SDS011;46318;52.716;6.444;2023-06-10T11:54:05;6.45;;;5.55;;
60472;SDS011;46318;52.716;6.444;2023-06-10T11:56:33;5.15;;;4.00;;
60472;SDS011;46318;52.716;6.444;2023-06-10T11:59:00;4.57;;;3.58;;
60472;SDS011;46318;52.716;6.444;2023-06-10T12:01:36;5.40;;;4.03;;
60472;SDS011;46318;52.716;6.444;2023-06-10T12:04:07;5.85;;;4.60;;
60472;SDS011;46318;52.716;6.444;2023-06-10T12:06:44;4.05;;;3.65;;
60472;SDS011;46318;52.716;6.444;2023-06-10T12:12:01;5.30;;;4.80;;
60472;SDS011;46318;52.716;6.444;2023-06-10T12:19:59;5.38;;;3.72;;
60472;SDS011;46318;52.716;6.444;2023-06-10T12:22:26;3.65;;;3.35;;
60472;SDS011;46318;52.716;6.444;2023-06-10T12:24:58;4.97;;;3.10;;
60472;SDS011;46318;52.716;6.444;2023-06-10T12:27:30;5.97;;;3.47;;
60472;SDS011;46318;52.716;6.444;2023-06-10T12:30:00;12.82;;;3.80;;
60472;SDS011;46318;52.716;6.444;2023-06-10T12:32:41;4.22;;;3.47;;
60472;SDS011;46318;52.716;6.444;2023-06-10T12:35:09;4.65;;;3.60;;
60472;SDS011;46318;52.716;6.444;2023-06-10T12:37:38;3.65;;;3.30;;
60472;SDS011;46318;52.716;6.444;2023-06-10T12:40:05;3.70;;;2.97;;
60472;SDS011;46318;52.716;6.444;2023-06-10T12:42:35;6.22;;;3.40;;
60472;SDS011;46318;52.716;6.444;2023-06-10T12:45:02;3.75;;;3.42;;
60472;SDS011;46318;52.716;6.444;2023-06-10T12:47:34;3.72;;;3.42;;
60472;SDS011;46318;52.716;6.444;2023-06-10T12:50:04;6.80;;;3.65;;
60472;SDS011;46318;52.716;6.444;2023-06-10T12:52:31;4.65;;;3.45;;
60472;SDS011;46318;52.716;6.444;2023-06-10T12:54:57;3.65;;;3.08;;
60472;SDS011;46318;52.716;6.444;2023-06-10T12:57:24;4.07;;;3.15;;
60472;SDS011;46318;52.716;6.444;2023-06-10T12:59:50;4.32;;;3.10;;
60472;SDS011;46318;52.716;6.444;2023-06-10T13:02:22;4.03;;;3.28;;
60472;SDS011;46318;52.716;6.444;2023-06-10T13:04:49;4.80;;;3.10;;
60472;SDS011;46318;52.716;6.444;2023-06-10T13:07:16;3.05;;;2.85;;
60472;SDS011;46318;52.716;6.444;2023-06-10T13:09:42;6.40;;;3.30;;
60472;SDS011;46318;52.716;6.444;2023-06-10T13:12:09;3.47;;;3.17;;
60472;SDS011;46318;52.716;6.444;2023-06-10T13:14:35;3.00;;;2.78;;
60472;SDS011;46318;52.716;6.444;2023-06-10T13:17:05;3.88;;;2.97;;
60472;SDS011;46318;52.716;6.444;2023-06-10T13:19:32;3.22;;;2.92;;
60472;SDS011;46318;52.716;6.444;2023-06-10T13:21:58;4.80;;;3.03;;
60472;SDS011;46318;52.716;6.444;2023-06-10T13:24:24;3.20;;;2.90;;
60472;SDS011;46318;52.716;6.444;2023-06-10T13:26:51;3.67;;;3.15;;
60472;SDS011;46318;52.716;6.444;2023-06-10T13:29:17;4.18;;;3.78;;
60472;SDS011;46318;52.716;6.444;2023-06-10T13:31:43;3.33;;;2.97;;
60472;SDS011;46318;52.716;6.444;2023-06-10T13:34:08;4.03;;;3.00;;
60472;SDS011;46318;52.716;6.444;2023-06-10T13:36:34;3.28;;;2.97;;
60472;SDS011;46318;52.716;6.444;2023-06-10T13:39:00;5.57;;;2.95;;
60472;SDS011;46318;52.716;6.444;2023-06-10T13:41:26;4.30;;;2.60;;
60472;SDS011;46318;52.716;6.444;2023-06-10T13:43:53;3.17;;;2.83;;
60472;SDS011;46318;52.716;6.444;2023-06-10T13:46:21;3.15;;;2.72;;
60472;SDS011;46318;52.716;6.444;2023-06-10T13:48:47;4.88;;;2.70;;
60472;SDS011;46318;52.716;6.444;2023-06-10T13:51:13;3.78;;;3.10;;
60472;SDS011;46318;52.716;6.444;2023-06-10T13:53:39;3.22;;;2.90;;
60472;SDS011;46318;52.716;6.444;2023-06-10T13:56:05;3.28;;;2.75;;
60472;SDS011;46318;52.716;6.444;2023-06-10T13:58:32;3.10;;;2.83;;
60472;SDS011;46318;52.716;6.444;2023-06-10T14:01:03;3.55;;;3.00;;
60472;SDS011;46318;52.716;6.444;2023-06-10T14:03:30;4.57;;;2.85;;
60472;SDS011;46318;52.716;6.444;2023-06-10T14:05:56;3.45;;;2.88;;
60472;SDS011;46318;52.716;6.444;2023-06-10T14:08:22;3.65;;;2.78;;
60472;SDS011;46318;52.716;6.444;2023-06-10T14:10:48;3.20;;;2.92;;
60472;SDS011;46318;52.716;6.444;2023-06-10T14:13:15;3.22;;;2.92;;
60472;SDS011;46318;52.716;6.444;2023-06-10T14:15:42;3.95;;;3.03;;
60472;SDS011;46318;52.716;6.444;2023-06-10T14:18:08;3.78;;;3.15;;
60472;SDS011;46318;52.716;6.444;2023-06-10T14:20:34;3.50;;;2.75;;
60472;SDS011;46318;52.716;6.444;2023-06-10T14:23:00;3.55;;;2.97;;
60472;SDS011;46318;52.716;6.444;2023-06-10T14:25:26;3.50;;;3.10;;
60472;SDS011;46318;52.716;6.444;2023-06-10T14:27:52;3.10;;;2.80;;
60472;SDS011;46318;52.716;6.444;2023-06-10T14:30:17;3.50;;;2.95;;
60472;SDS011;46318;52.716;6.444;2023-06-10T14:32:44;4.65;;;3.10;;
60472;SDS011;46318;52.716;6.444;2023-06-10T14:35:09;3.08;;;2.80;;
60472;SDS011;46318;52.716;6.444;2023-06-10T14:37:36;3.85;;;3.45;;
60472;SDS011;46318;52.716;6.444;2023-06-10T14:40:03;3.22;;;2.92;;
60472;SDS011;46318;52.716;6.444;2023-06-10T14:42:30;4.82;;;3.67;;
60472;SDS011;46318;52.716;6.444;2023-06-10T14:44:57;4.00;;;3.05;;
60472;SDS011;46318;52.716;6.444;2023-06-10T14:47:23;5.28;;;3.70;;
60472;SDS011;46318;52.716;6.444;2023-06-10T14:49:50;4.15;;;3.40;;
60472;SDS011;46318;52.716;6.444;2023-06-10T14:52:16;3.80;;;3.22;;
60472;SDS011;46318;52.716;6.444;2023-06-10T14:54:41;4.60;;;3.70;;
60472;SDS011;46318;52.716;6.444;2023-06-10T14:57:07;3.50;;;3.20;;
60472;SDS011;46318;52.716;6.444;2023-06-10T14:59:33;4.00;;;3.50;;
60472;SDS011;46318;52.716;6.444;2023-06-10T15:02:00;4.38;;;3.58;;
60472;SDS011;46318;52.716;6.444;2023-06-10T15:04:26;5.10;;;3.70;;
60472;SDS011;46318;52.716;6.444;2023-06-10T15:06:53;4.65;;;3.70;;
60472;SDS011;46318;52.716;6.444;2023-06-10T15:09:19;3.88;;;3.42;;
60472;SDS011;46318;52.716;6.444;2023-06-10T15:11:45;4.55;;;3.92;;
60472;SDS011;46318;52.716;6.444;2023-06-10T15:14:11;4.45;;;3.60;;